createdAt,value
2022-10-09T00:01:11.657Z,99.20
2022-10-09T00:03:40.300Z,99.00
2022-10-09T00:06:08.855Z,99.00
2022-10-09T00:08:36.649Z,98.90
2022-10-09T00:11:07.824Z,98.70
2022-10-09T00:13:35.251Z,98.70
2022-10-09T00:16:11.233Z,98.60
2022-10-09T00:18:38.379Z,98.50
2022-10-09T00:21:06.229Z,98.50
2022-10-09T00:23:33.065Z,98.50
2022-10-09T00:26:01.619Z,98.70
2022-10-09T00:28:35.288Z,98.60
2022-10-09T00:31:06.137Z,98.50
2022-10-09T00:33:34.265Z,98.60
2022-10-09T00:36:10.451Z,98.60
2022-10-09T00:38:37.255Z,98.70
2022-10-09T00:41:04.542Z,98.60
2022-10-09T00:43:57.377Z,98.70
2022-10-09T00:46:45.818Z,98.70
2022-10-09T00:49:24.906Z,98.70
2022-10-09T00:51:52.239Z,98.60
2022-10-09T00:54:22.643Z,98.50
2022-10-09T00:56:50.008Z,98.40
2022-10-09T00:59:17.568Z,98.40
2022-10-09T01:01:44.769Z,98.40
2022-10-09T01:04:12.073Z,98.30
2022-10-09T01:07:07.577Z,98.20
2022-10-09T01:09:50.249Z,98.30
2022-10-09T01:12:40.815Z,98.30
2022-10-09T01:15:16.922Z,98.60
2022-10-09T01:18:15.023Z,98.50
2022-10-09T01:21:03.865Z,98.40
2022-10-09T01:23:55.294Z,98.40
2022-10-09T01:26:34.110Z,98.40
2022-10-09T01:29:06.714Z,98.40
2022-10-09T01:31:39.373Z,98.60
2022-10-09T01:34:07.660Z,98.60
2022-10-09T01:36:36.856Z,98.60
2022-10-09T01:39:05.675Z,98.90
2022-10-09T01:41:32.428Z,99.10
2022-10-09T01:43:59.155Z,99.10
2022-10-09T01:46:29.640Z,99.00
2022-10-09T01:48:59.309Z,98.80
2022-10-09T01:51:30.243Z,98.70
2022-10-09T01:54:01.496Z,98.60
2022-10-09T01:56:33.244Z,98.50
2022-10-09T01:59:06.615Z,98.50
2022-10-09T02:01:36.511Z,98.40
2022-10-09T02:04:10.096Z,98.40
2022-10-09T02:06:40.150Z,98.50
2022-10-09T02:09:11.416Z,98.50
2022-10-09T02:11:41.513Z,98.50
2022-10-09T02:14:08.953Z,98.50
2022-10-09T02:16:45.509Z,98.50
2022-10-09T02:19:26.678Z,98.40
2022-10-09T02:22:05.634Z,98.30
2022-10-09T02:24:32.911Z,98.30
2022-10-09T02:27:00.653Z,98.30
2022-10-09T02:29:27.440Z,98.40
2022-10-09T02:31:54.269Z,98.30
2022-10-09T02:34:21.735Z,98.40
2022-10-09T02:36:48.763Z,98.40
2022-10-09T02:39:15.716Z,98.40
2022-10-09T02:41:42.430Z,98.20
2022-10-09T02:44:09.533Z,98.10
2022-10-09T02:46:38.332Z,98.10
2022-10-09T02:49:06.154Z,98.10
2022-10-09T02:51:33.244Z,98.10
2022-10-09T02:53:59.923Z,98.20
2022-10-09T02:56:26.649Z,98.10
2022-10-09T02:58:53.722Z,98.10
2022-10-09T03:01:21.058Z,98.10
2022-10-09T03:03:47.891Z,98.20
2022-10-09T03:06:21.008Z,98.20
2022-10-09T03:08:50.075Z,98.40
2022-10-09T03:11:18.152Z,98.60
2022-10-09T03:13:45.601Z,98.50
2022-10-09T03:16:17.655Z,98.40
2022-10-09T03:18:45.845Z,98.40
2022-10-09T03:21:15.520Z,98.20
2022-10-09T03:23:42.864Z,98.30
2022-10-09T03:26:15.837Z,98.20
2022-10-09T03:28:46.951Z,98.00
2022-10-09T03:31:27.684Z,98.10
2022-10-09T03:34:01.689Z,98.30
2022-10-09T03:36:28.419Z,98.30
2022-10-09T03:38:55.079Z,98.30
2022-10-09T03:41:21.744Z,98.20
2022-10-09T03:43:48.357Z,98.30
2022-10-09T03:46:15.098Z,98.40
2022-10-09T03:48:41.806Z,98.50
2022-10-09T03:51:08.559Z,98.50
2022-10-09T03:53:35.425Z,98.40
2022-10-09T03:56:02.055Z,98.30
2022-10-09T03:58:28.788Z,98.20
2022-10-09T04:00:55.737Z,98.30
2022-10-09T04:03:22.718Z,98.40
2022-10-09T04:05:49.528Z,98.20
2022-10-09T04:08:16.294Z,98.20
2022-10-09T04:10:42.940Z,98.20
2022-10-09T04:13:10.257Z,98.10
2022-10-09T04:15:37.545Z,98.40
2022-10-09T04:18:04.784Z,98.40
2022-10-09T04:20:31.679Z,98.40
2022-10-09T04:22:58.323Z,98.50
2022-10-09T04:25:25.058Z,98.60
2022-10-09T04:27:51.749Z,98.50
2022-10-09T04:30:18.385Z,98.60
2022-10-09T04:32:48.029Z,98.40
2022-10-09T04:35:15.248Z,98.30
2022-10-09T04:37:42.115Z,98.50
2022-10-09T04:40:09.066Z,98.60
2022-10-09T04:42:35.822Z,98.80
2022-10-09T04:45:02.549Z,98.80
2022-10-09T04:47:29.188Z,98.70
2022-10-09T04:49:55.830Z,98.60
2022-10-09T04:52:22.496Z,98.60
2022-10-09T04:54:49.162Z,98.60
2022-10-09T04:57:15.929Z,98.40
2022-10-09T04:59:42.603Z,98.40
2022-10-09T05:02:09.324Z,98.40
2022-10-09T05:04:36.027Z,98.30
2022-10-09T05:07:02.674Z,98.10
2022-10-09T05:09:29.424Z,98.10
2022-10-09T05:11:56.107Z,98.20
2022-10-09T05:14:22.862Z,98.30
2022-10-09T05:17:12.634Z,98.30
2022-10-09T05:19:39.408Z,98.60
2022-10-09T05:22:06.234Z,98.60
2022-10-09T05:24:32.889Z,98.50
2022-10-09T05:26:59.655Z,98.70
2022-10-09T05:29:26.293Z,98.60
2022-10-09T05:31:52.953Z,98.60
2022-10-09T05:34:19.752Z,98.70
2022-10-09T05:36:46.534Z,98.80
2022-10-09T05:39:13.248Z,98.90
2022-10-09T05:41:39.956Z,99.00
2022-10-09T05:44:06.711Z,99.00
2022-10-09T05:46:33.515Z,99.00
2022-10-09T05:49:07.170Z,98.90
2022-10-09T05:51:36.928Z,98.80
2022-10-09T05:54:05.059Z,98.90
2022-10-09T05:56:34.657Z,99.10
2022-10-09T05:59:09.540Z,99.10
2022-10-09T06:01:44.781Z,99.10
2022-10-09T06:04:20.558Z,98.90
2022-10-09T06:06:48.687Z,98.80
2022-10-09T06:09:17.794Z,98.80
2022-10-09T06:11:45.020Z,98.70
2022-10-09T06:14:13.552Z,98.80
2022-10-09T06:16:44.943Z,99.00
2022-10-09T06:19:14.366Z,99.00
2022-10-09T06:21:41.773Z,99.00
2022-10-09T06:24:08.527Z,99.10
2022-10-09T06:26:35.557Z,99.40
2022-10-09T06:29:02.879Z,99.50
2022-10-09T06:31:31.992Z,99.80
2022-10-09T06:34:00.903Z,99.90
2022-10-09T06:36:29.857Z,99.90
2022-10-09T06:38:58.761Z,99.90
2022-10-09T06:41:26.983Z,99.90
2022-10-09T06:43:56.515Z,99.90
2022-10-09T06:46:27.466Z,99.90
2022-10-09T06:48:54.313Z,99.90
2022-10-09T06:51:22.933Z,99.90
2022-10-09T06:53:54.443Z,99.90
2022-10-09T06:56:22.820Z,99.90
2022-10-09T06:58:49.912Z,99.90
2022-10-09T07:01:27.694Z,99.90
2022-10-09T07:03:59.869Z,99.90
2022-10-09T07:06:31.728Z,99.90
2022-10-09T07:09:01.082Z,99.90
2022-10-09T07:11:39.875Z,99.90
2022-10-09T07:14:08.440Z,99.90
2022-10-09T07:16:37.686Z,99.90
2022-10-09T07:19:07.570Z,99.90
2022-10-09T07:21:35.726Z,99.90
2022-10-09T07:24:03.704Z,99.90
2022-10-09T07:26:32.928Z,99.90
2022-10-09T07:29:00.199Z,99.90
2022-10-09T07:31:27.019Z,99.90
2022-10-09T07:33:56.490Z,99.90
2022-10-09T07:36:23.987Z,99.90
2022-10-09T07:38:55.613Z,99.90
2022-10-09T07:41:24.310Z,99.90
2022-10-09T07:43:51.396Z,99.90
2022-10-09T07:46:19.873Z,99.90
2022-10-09T07:48:47.085Z,99.90
2022-10-09T07:51:16.070Z,99.90
2022-10-09T07:53:46.003Z,99.90
2022-10-09T07:56:17.464Z,99.90
2022-10-09T07:58:49.108Z,99.90
2022-10-09T08:01:20.085Z,99.90
2022-10-09T08:03:48.451Z,99.90
2022-10-09T08:06:15.693Z,99.90
2022-10-09T08:08:42.615Z,99.90
2022-10-09T08:11:15.644Z,99.90
2022-10-09T08:13:43.712Z,99.90
2022-10-09T08:16:11.096Z,99.90
2022-10-09T08:18:38.019Z,99.90
2022-10-09T08:21:11.209Z,99.90
2022-10-09T08:23:37.987Z,99.90
2022-10-09T08:26:11.674Z,99.90
2022-10-09T08:28:38.454Z,99.90
2022-10-09T08:31:16.503Z,99.90
2022-10-09T08:33:43.382Z,99.90
2022-10-09T08:36:12.045Z,99.90
2022-10-09T08:38:47.285Z,99.90
2022-10-09T08:41:32.387Z,99.90
2022-10-09T08:44:19.092Z,99.90
2022-10-09T08:47:07.290Z,99.90
2022-10-09T08:49:46.913Z,99.90
2022-10-09T08:52:32.415Z,99.80
2022-10-09T08:55:06.092Z,99.90
2022-10-09T08:57:34.459Z,99.60
2022-10-09T09:00:01.291Z,98.90
2022-10-09T09:02:47.056Z,98.80
2022-10-09T09:05:52.397Z,98.60
2022-10-09T09:08:44.274Z,98.30
2022-10-09T09:11:38.061Z,98.00
2022-10-09T09:14:57.979Z,97.60
2022-10-09T09:17:58.018Z,97.00
2022-10-09T09:20:30.667Z,97.00
2022-10-09T09:23:01.060Z,96.90
2022-10-09T09:25:34.494Z,96.50
2022-10-09T09:28:24.316Z,96.70
2022-10-09T09:30:58.084Z,96.20
2022-10-09T09:33:44.983Z,96.40
2022-10-09T09:36:28.337Z,96.10
2022-10-09T09:39:44.275Z,95.90
2022-10-09T09:41:44.101Z,95.50
2022-10-09T09:44:13.267Z,95.00
2022-10-09T09:46:41.828Z,94.80
2022-10-09T09:49:26.939Z,94.90
2022-10-09T09:51:56.307Z,93.60
2022-10-09T09:54:26.804Z,93.60
2022-10-09T09:57:12.929Z,93.30
2022-10-09T09:59:43.309Z,92.60
2022-10-09T10:02:13.133Z,92.20
2022-10-09T10:05:14.296Z,92.40
2022-10-09T10:07:41.029Z,91.70
2022-10-09T10:10:07.774Z,91.20
2022-10-09T10:12:44.670Z,91.30
2022-10-09T10:15:37.437Z,91.60
2022-10-09T10:18:13.942Z,91.20
2022-10-09T10:20:47.201Z,90.20
2022-10-09T10:23:52.097Z,90.60
2022-10-09T10:26:27.150Z,90.00
2022-10-09T10:29:17.029Z,89.80
2022-10-09T10:31:47.241Z,89.20
2022-10-09T10:34:30.819Z,88.40
2022-10-09T10:37:10.567Z,86.60
2022-10-09T10:39:46.792Z,85.40
2022-10-09T10:42:24.849Z,85.70
2022-10-09T10:45:10.261Z,85.30
2022-10-09T10:47:44.206Z,84.30
2022-10-09T10:50:15.824Z,83.40
2022-10-09T10:53:02.753Z,81.90
2022-10-09T10:55:52.783Z,81.90
2022-10-09T10:58:31.071Z,81.10
2022-10-09T11:01:22.348Z,80.60
2022-10-09T11:04:21.360Z,79.10
2022-10-09T11:06:59.836Z,80.00
2022-10-09T11:09:33.883Z,77.60
2022-10-09T11:12:36.346Z,76.70
2022-10-09T11:15:39.254Z,74.30
2022-10-09T11:18:21.465Z,74.60
2022-10-09T11:21:03.806Z,74.70
2022-10-09T11:23:39.780Z,73.20
2022-10-09T11:26:42.213Z,72.10
2022-10-09T11:29:53.376Z,70.70
2022-10-09T11:32:31.078Z,68.90
2022-10-09T11:35:18.115Z,69.90
2022-10-09T11:37:59.821Z,68.10
2022-10-09T11:40:35.066Z,68.50
2022-10-09T11:43:27.357Z,67.70
2022-10-09T11:46:03.327Z,68.30
2022-10-09T11:48:54.717Z,68.90
2022-10-09T11:51:33.192Z,68.20
2022-10-09T11:54:01.857Z,66.10
2022-10-09T11:56:31.992Z,65.50
2022-10-09T11:59:01.150Z,66.10
2022-10-09T12:01:44.561Z,64.10
2022-10-09T12:04:20.840Z,62.80
2022-10-09T12:07:00.509Z,63.10
2022-10-09T12:09:35.206Z,61.90
2022-10-09T12:12:07.015Z,61.20
2022-10-09T12:14:37.089Z,61.80
2022-10-09T12:17:21.707Z,62.40
2022-10-09T12:19:58.580Z,61.60
2022-10-09T12:23:13.962Z,60.90
2022-10-09T12:25:45.067Z,61.40
2022-10-09T12:28:54.430Z,61.50
2022-10-09T12:31:25.718Z,61.40
2022-10-09T12:33:57.717Z,61.70
2022-10-09T12:36:29.562Z,61.80
2022-10-09T12:38:56.373Z,61.90
2022-10-09T12:41:33.886Z,60.70
2022-10-09T12:44:15.911Z,61.30
2022-10-09T12:46:42.689Z,60.80
2022-10-09T12:49:19.301Z,60.60
2022-10-09T12:51:56.060Z,60.30
2022-10-09T12:54:27.295Z,59.00
2022-10-09T12:56:56.497Z,58.80
2022-10-09T12:59:25.339Z,58.60
2022-10-09T13:01:57.753Z,59.20
2022-10-09T13:04:31.282Z,59.10
2022-10-09T13:07:05.627Z,59.60
2022-10-09T13:09:38.382Z,59.30
2022-10-09T13:12:09.832Z,58.40
2022-10-09T13:14:46.547Z,58.20
2022-10-09T13:20:12.901Z,58.70
2022-10-09T13:22:39.830Z,58.20
2022-10-09T13:25:07.194Z,56.40
2022-10-09T13:27:37.944Z,56.60
2022-10-09T13:30:06.018Z,56.90
2022-10-09T13:32:32.749Z,56.50
2022-10-09T13:34:59.467Z,55.90
2022-10-09T13:37:27.415Z,55.80
2022-10-09T13:39:59.230Z,56.10
2022-10-09T13:42:30.083Z,55.70
2022-10-09T13:44:57.248Z,56.40
2022-10-09T13:47:24.840Z,56.80
2022-10-09T13:49:51.671Z,56.90
2022-10-09T13:52:18.587Z,56.30
2022-10-09T13:54:45.388Z,55.30
2022-10-09T13:57:12.160Z,55.40
2022-10-09T13:59:39.073Z,55.80
2022-10-09T14:02:05.891Z,56.30
2022-10-09T14:04:32.542Z,55.60
2022-10-09T14:06:59.321Z,55.60
2022-10-09T14:09:26.132Z,55.80
2022-10-09T14:11:52.900Z,56.50
2022-10-09T14:14:19.730Z,56.50
2022-10-09T14:16:46.536Z,56.70
2022-10-09T14:19:13.230Z,56.90
2022-10-09T14:21:40.253Z,57.60
2022-10-09T14:24:07.174Z,57.60
2022-10-09T14:26:34.450Z,57.60
2022-10-09T14:29:02.938Z,58.10
2022-10-09T14:31:30.147Z,58.10
2022-10-09T14:33:59.516Z,58.20
2022-10-09T14:36:27.072Z,58.80
2022-10-09T14:38:54.009Z,59.20
2022-10-09T14:41:21.365Z,59.30
2022-10-09T14:43:49.025Z,59.70
2022-10-09T14:46:17.753Z,59.60
2022-10-09T14:48:45.973Z,60.40
2022-10-09T14:51:19.490Z,60.90
2022-10-09T14:53:47.121Z,61.40
2022-10-09T14:56:17.954Z,61.90
2022-10-09T14:58:45.075Z,63.10
2022-10-09T15:01:17.377Z,63.90
2022-10-09T15:03:46.032Z,64.40
2022-10-09T15:06:13.408Z,65.10
2022-10-09T15:08:42.318Z,66.00
2022-10-09T15:11:10.539Z,66.60
2022-10-09T15:13:38.028Z,67.00
2022-10-09T15:16:16.517Z,67.50
2022-10-09T15:18:44.004Z,68.50
2022-10-09T15:21:16.712Z,68.30
2022-10-09T15:23:43.914Z,68.60
2022-10-09T15:26:11.177Z,69.10
2022-10-09T15:28:39.238Z,69.30
2022-10-09T15:31:07.360Z,69.60
2022-10-09T15:33:34.303Z,70.00
2022-10-09T15:36:03.942Z,70.20
2022-10-09T15:38:30.829Z,70.70
2022-10-09T15:40:57.550Z,71.10
2022-10-09T15:43:26.213Z,71.60
2022-10-09T15:45:54.187Z,72.20
2022-10-09T15:48:23.618Z,72.70
2022-10-09T15:50:53.620Z,73.30
2022-10-09T15:53:22.614Z,74.00
2022-10-09T15:55:51.921Z,74.80
2022-10-09T15:58:19.143Z,75.80
2022-10-09T16:00:49.302Z,76.60
2022-10-09T16:03:17.957Z,77.30
2022-10-09T16:05:48.841Z,78.00
2022-10-09T16:08:17.089Z,78.70
2022-10-09T16:10:49.002Z,79.20
2022-10-09T16:13:16.954Z,79.60
2022-10-09T16:15:45.140Z,80.40
2022-10-09T16:18:12.071Z,81.10
2022-10-09T16:20:39.715Z,81.50
2022-10-09T16:23:08.387Z,82.00
2022-10-09T16:25:36.620Z,82.60
2022-10-09T16:28:04.492Z,83.20
2022-10-09T16:30:33.176Z,83.70
2022-10-09T16:32:59.835Z,84.20
2022-10-09T16:35:26.629Z,85.50
2022-10-09T16:37:53.387Z,85.00
2022-10-09T16:40:25.435Z,85.40
2022-10-09T16:43:00.196Z,86.00
2022-10-09T16:45:28.168Z,86.40
2022-10-09T16:47:59.531Z,86.80
2022-10-09T16:50:26.881Z,87.10
2022-10-09T16:52:53.639Z,87.30
2022-10-09T16:55:20.408Z,87.90
2022-10-09T16:57:47.443Z,88.20
2022-10-09T17:00:19.076Z,88.80
2022-10-09T17:02:46.385Z,89.30
2022-10-09T17:05:13.564Z,89.40
2022-10-09T17:07:40.617Z,89.60
2022-10-09T17:10:09.552Z,90.20
2022-10-09T17:12:37.312Z,90.40
2022-10-09T17:15:05.569Z,90.50
2022-10-09T17:17:32.569Z,90.60
2022-10-09T17:19:59.511Z,90.70
2022-10-09T17:22:26.382Z,90.80
2022-10-09T17:24:53.268Z,90.90
2022-10-09T17:27:20.068Z,91.10
2022-10-09T17:29:48.297Z,91.10
2022-10-09T17:32:15.306Z,91.20
2022-10-09T17:34:45.988Z,91.20
2022-10-09T17:37:13.449Z,91.40
2022-10-09T17:39:42.231Z,91.60
2022-10-09T17:42:11.379Z,91.70
2022-10-09T17:44:38.400Z,91.70
2022-10-09T17:47:06.293Z,91.90
2022-10-09T17:49:33.230Z,91.90
2022-10-09T17:52:00.248Z,91.90
2022-10-09T17:54:27.163Z,92.20
2022-10-09T17:56:54.673Z,92.20
2022-10-09T17:59:22.202Z,92.30
2022-10-09T18:01:49.062Z,92.40
2022-10-09T18:04:17.516Z,92.50
2022-10-09T18:06:45.087Z,92.50
2022-10-09T18:09:12.389Z,92.60
2022-10-09T18:11:39.241Z,92.70
2022-10-09T18:14:06.056Z,92.80
2022-10-09T18:16:36.857Z,92.80
2022-10-09T18:19:13.953Z,92.90
2022-10-09T18:21:43.577Z,93.00
2022-10-09T18:24:11.590Z,93.00
2022-10-09T18:26:39.390Z,93.20
2022-10-09T18:29:06.978Z,93.30
2022-10-09T18:31:34.415Z,93.40
2022-10-09T18:34:01.529Z,93.50
2022-10-09T18:36:34.802Z,93.50
2022-10-09T18:39:13.498Z,93.60
2022-10-09T18:41:40.802Z,93.70
2022-10-09T18:44:17.484Z,93.80
2022-10-09T18:46:51.583Z,93.90
2022-10-09T18:49:20.984Z,94.00
2022-10-09T18:51:48.725Z,94.10
2022-10-09T18:54:18.249Z,94.00
2022-10-09T18:56:45.479Z,94.20
2022-10-09T18:59:16.031Z,94.40
2022-10-09T19:01:42.941Z,94.50
2022-10-09T19:04:09.850Z,94.60
2022-10-09T19:06:37.371Z,94.70
2022-10-09T19:09:04.604Z,94.80
2022-10-09T19:11:33.740Z,94.80
2022-10-09T19:14:01.136Z,94.90
2022-10-09T19:16:29.679Z,95.00
2022-10-09T19:18:56.859Z,95.10
2022-10-09T19:21:23.897Z,95.20
2022-10-09T19:23:53.349Z,95.30
2022-10-09T19:26:21.424Z,95.40
2022-10-09T19:28:48.651Z,95.50
2022-10-09T19:31:15.925Z,95.50
2022-10-09T19:33:43.325Z,95.50
2022-10-09T19:36:12.640Z,95.50
2022-10-09T19:38:40.559Z,95.60
2022-10-09T19:41:13.669Z,95.70
2022-10-09T19:43:41.639Z,95.70
2022-10-09T19:46:14.704Z,95.80
2022-10-09T19:48:41.753Z,96.00
2022-10-09T19:51:13.422Z,96.10
2022-10-09T19:53:40.881Z,96.10
2022-10-09T19:56:19.382Z,96.20
2022-10-09T19:58:48.632Z,96.20
2022-10-09T20:01:18.591Z,96.30
2022-10-09T20:03:46.235Z,96.30
2022-10-09T20:06:13.526Z,96.30
2022-10-09T20:08:42.072Z,96.30
2022-10-09T20:11:11.499Z,96.30
2022-10-09T20:13:40.578Z,96.30
2022-10-09T20:16:11.166Z,96.40
2022-10-09T20:18:42.508Z,96.50
2022-10-09T20:21:11.401Z,96.70
2022-10-09T20:23:38.765Z,96.80
2022-10-09T20:26:09.342Z,96.90
2022-10-09T20:28:38.186Z,97.10
2022-10-09T20:31:07.970Z,97.20
2022-10-09T20:33:36.436Z,97.30
2022-10-09T20:36:04.659Z,97.30
2022-10-09T20:38:31.689Z,97.40
2022-10-09T20:41:07.728Z,97.40
2022-10-09T20:43:35.970Z,97.50
2022-10-09T20:46:12.454Z,97.70
2022-10-09T20:48:40.118Z,97.80
2022-10-09T20:51:07.187Z,98.00
2022-10-09T20:53:34.399Z,98.00
2022-10-09T20:56:05.744Z,98.00
2022-10-09T20:58:32.863Z,98.00
2022-10-09T21:00:59.798Z,98.10
2022-10-09T21:03:26.603Z,98.30
2022-10-09T21:05:53.416Z,98.60
2022-10-09T21:08:20.263Z,98.60
2022-10-09T21:10:49.472Z,98.70
2022-10-09T21:13:17.273Z,98.80
2022-10-09T21:15:45.792Z,98.80
2022-10-09T21:18:13.524Z,98.70
2022-10-09T21:20:41.889Z,98.60
2022-10-09T21:23:09.845Z,98.90
2022-10-09T21:25:37.539Z,98.90
2022-10-09T21:28:05.803Z,98.80
2022-10-09T21:30:41.553Z,98.90
2022-10-09T21:33:09.212Z,99.00
2022-10-09T21:35:44.306Z,99.10
2022-10-09T21:38:16.624Z,99.40
2022-10-09T21:40:43.773Z,99.40
2022-10-09T21:43:10.869Z,99.20
2022-10-09T21:45:38.994Z,98.90
2022-10-09T21:48:06.500Z,98.70
2022-10-09T21:50:33.614Z,98.70
2022-10-09T21:53:00.613Z,98.60
2022-10-09T21:55:27.447Z,98.60
2022-10-09T21:57:54.725Z,98.90
2022-10-09T22:00:21.810Z,99.10
2022-10-09T22:02:48.824Z,99.20
2022-10-09T22:05:15.870Z,99.20
2022-10-09T22:07:42.587Z,99.60
2022-10-09T22:10:09.763Z,99.30
2022-10-09T22:12:36.497Z,99.40
2022-10-09T22:15:03.808Z,99.50
2022-10-09T22:17:30.516Z,99.60
2022-10-09T22:19:57.320Z,99.60
2022-10-09T22:22:24.285Z,99.80
2022-10-09T22:24:51.821Z,99.70
2022-10-09T22:27:19.263Z,99.70
2022-10-09T22:29:45.989Z,99.80
2022-10-09T22:32:12.812Z,99.90
2022-10-09T22:34:39.550Z,99.90
2022-10-09T22:37:06.303Z,99.80
2022-10-09T22:39:33.255Z,99.70
2022-10-09T22:41:59.937Z,99.60
2022-10-09T22:44:26.826Z,99.70
2022-10-09T22:46:53.509Z,99.60
2022-10-09T22:49:20.313Z,99.60
2022-10-09T22:51:47.109Z,99.70
2022-10-09T22:54:14.207Z,99.70
2022-10-09T22:56:43.901Z,99.60
2022-10-09T22:59:13.608Z,99.80
2022-10-09T23:01:53.643Z,99.80
2022-10-09T23:04:21.738Z,99.80
2022-10-09T23:06:57.107Z,99.90
2022-10-09T23:09:27.512Z,99.90
2022-10-09T23:11:55.620Z,99.90
2022-10-09T23:14:23.210Z,99.90
2022-10-09T23:16:50.021Z,99.90
2022-10-09T23:19:20.235Z,99.90
2022-10-09T23:21:47.721Z,99.90
2022-10-09T23:24:17.483Z,99.90
2022-10-09T23:26:46.273Z,99.90
2022-10-09T23:29:16.581Z,99.90
2022-10-09T23:31:44.418Z,99.90
2022-10-09T23:34:11.546Z,99.90
2022-10-09T23:36:38.806Z,99.90
2022-10-09T23:39:06.825Z,99.90
2022-10-09T23:41:33.828Z,99.90
2022-10-09T23:44:00.641Z,99.90
2022-10-09T23:46:30.437Z,99.90
2022-10-09T23:48:57.330Z,99.90
2022-10-09T23:51:26.118Z,99.90
2022-10-09T23:53:53.072Z,99.90
2022-10-09T23:56:25.891Z,99.90
2022-10-09T23:58:53.839Z,99.90
